createdAt,value
2018-05-02T00:01:50.757Z,99.90
2018-05-02T00:04:18.284Z,99.90
2018-05-02T00:06:46.589Z,99.90
2018-05-02T00:09:14.113Z,99.90
2018-05-02T00:11:41.654Z,99.90
2018-05-02T00:14:09.168Z,99.90
2018-05-02T00:16:36.700Z,99.90
2018-05-02T00:19:04.846Z,99.90
2018-05-02T00:21:32.389Z,99.90
2018-05-02T00:23:59.943Z,99.90
2018-05-02T00:26:27.512Z,99.90
2018-05-02T00:28:55.073Z,99.90
2018-05-02T00:31:22.604Z,99.90
2018-05-02T00:33:50.893Z,99.90
2018-05-02T00:36:19.205Z,99.90
2018-05-02T00:38:46.724Z,99.90
2018-05-02T00:41:15.013Z,99.90
2018-05-02T00:43:43.315Z,99.90
2018-05-02T00:46:10.892Z,99.90
2018-05-02T00:48:50.319Z,99.90
2018-05-02T00:51:17.892Z,99.90
2018-05-02T00:53:45.450Z,99.90
2018-05-02T00:56:12.971Z,99.90
2018-05-02T00:58:40.504Z,99.90
2018-05-02T01:01:08.052Z,99.90
2018-05-02T01:03:35.600Z,99.90
2018-05-02T01:06:03.168Z,99.90
2018-05-02T01:08:30.699Z,99.90
2018-05-02T01:10:59.016Z,99.90
2018-05-02T01:13:26.552Z,99.90
2018-05-02T01:15:54.069Z,99.90
2018-05-02T01:18:21.650Z,99.90
2018-05-02T01:20:49.161Z,99.90
2018-05-02T01:23:16.725Z,99.90
2018-05-02T01:25:44.280Z,99.90
2018-05-02T01:28:11.789Z,99.90
2018-05-02T01:30:39.320Z,99.90
2018-05-02T01:33:06.831Z,99.90
2018-05-02T01:35:35.144Z,99.90
2018-05-02T01:38:02.665Z,99.90
2018-05-02T01:40:30.201Z,99.90
2018-05-02T01:42:57.720Z,99.90
2018-05-02T01:45:25.253Z,99.90
2018-05-02T01:47:53.531Z,99.90
2018-05-02T01:50:21.839Z,99.90
2018-05-02T01:52:49.360Z,99.90
2018-05-02T01:55:16.900Z,99.90
2018-05-02T01:57:44.420Z,99.90
2018-05-02T02:00:12.803Z,99.90
2018-05-02T02:02:41.084Z,99.90
2018-05-02T02:05:08.616Z,99.90
2018-05-02T02:07:36.131Z,99.90
2018-05-02T02:10:03.696Z,99.90
2018-05-02T02:12:31.211Z,99.90
2018-05-02T02:14:59.488Z,99.90
2018-05-02T02:17:27.024Z,99.90
2018-05-02T02:19:54.535Z,99.90
2018-05-02T02:22:22.076Z,99.90
2018-05-02T02:24:49.596Z,99.90
2018-05-02T02:27:17.136Z,99.90
2018-05-02T02:29:44.656Z,99.90
2018-05-02T02:32:12.198Z,99.90
2018-05-02T02:34:39.735Z,99.90
2018-05-02T02:37:07.276Z,99.90
2018-05-02T02:39:34.862Z,99.90
2018-05-02T02:42:02.420Z,99.90
2018-05-02T02:44:29.939Z,99.90
2018-05-02T02:46:58.236Z,99.90
2018-05-02T02:49:25.752Z,99.90
2018-05-02T02:51:53.385Z,99.90
2018-05-02T02:54:20.900Z,99.90
2018-05-02T02:56:49.181Z,99.90
2018-05-02T02:59:17.504Z,99.90
2018-05-02T03:01:45.021Z,99.90
2018-05-02T03:04:13.328Z,99.90
2018-05-02T03:06:40.845Z,99.90
2018-05-02T03:09:08.477Z,99.90
2018-05-02T03:11:35.991Z,99.90
2018-05-02T03:14:03.521Z,99.90
2018-05-02T03:16:31.037Z,99.90
2018-05-02T03:18:59.333Z,99.90
2018-05-02T03:21:26.847Z,99.90
2018-05-02T03:23:54.391Z,99.90
2018-05-02T03:26:21.908Z,99.90
2018-05-02T03:28:49.492Z,99.90
2018-05-02T03:31:17.007Z,99.90
2018-05-02T03:33:45.289Z,99.90
2018-05-02T03:36:13.595Z,99.90
2018-05-02T03:38:41.273Z,99.90
2018-05-02T03:41:08.804Z,99.90
2018-05-02T03:43:37.089Z,99.90
2018-05-02T03:46:05.388Z,99.90
2018-05-02T03:48:32.904Z,99.90
2018-05-02T03:51:00.437Z,99.90
2018-05-02T03:53:27.985Z,99.90
2018-05-02T03:55:55.515Z,99.90
2018-05-02T03:58:23.805Z,99.90
2018-05-02T04:01:04.092Z,99.90
2018-05-02T04:03:43.429Z,99.90
2018-05-02T04:06:22.945Z,99.90
2018-05-02T04:08:51.227Z,99.90
2018-05-02T04:11:19.526Z,99.90
2018-05-02T04:13:47.041Z,99.90
2018-05-02T04:16:14.661Z,99.90
2018-05-02T04:18:42.288Z,99.90
2018-05-02T04:21:09.762Z,99.90
2018-05-02T04:23:37.294Z,99.90
2018-05-02T04:26:04.890Z,99.90
2018-05-02T04:28:32.367Z,99.90
2018-05-02T04:30:59.892Z,99.90
2018-05-02T04:33:28.191Z,99.90
2018-05-02T04:35:55.707Z,99.90
2018-05-02T04:38:23.244Z,99.90
2018-05-02T04:40:50.809Z,99.90
2018-05-02T04:43:18.328Z,99.90
2018-05-02T04:45:46.613Z,99.90
2018-05-02T04:48:14.160Z,99.90
2018-05-02T04:50:42.441Z,99.90
2018-05-02T04:53:10.745Z,99.90
2018-05-02T04:55:38.262Z,99.90
2018-05-02T04:58:05.802Z,99.90
2018-05-02T05:00:33.328Z,99.90
2018-05-02T05:03:00.866Z,99.90
2018-05-02T05:05:29.148Z,99.90
2018-05-02T05:07:57.427Z,99.90
2018-05-02T05:10:25.728Z,99.90
2018-05-02T05:12:53.250Z,99.90
2018-05-02T05:15:20.787Z,99.90
2018-05-02T05:17:48.308Z,99.90
2018-05-02T05:20:15.887Z,99.90
2018-05-02T05:22:43.403Z,99.90
2018-05-02T05:25:10.939Z,99.90
2018-05-02T05:27:38.455Z,99.90
2018-05-02T05:30:06.036Z,99.90
2018-05-02T05:32:33.599Z,99.90
2018-05-02T05:35:01.138Z,99.90
2018-05-02T05:37:29.423Z,99.90
2018-05-02T05:39:56.963Z,99.90
2018-05-02T05:42:25.248Z,99.90
2018-05-02T05:44:53.555Z,99.90
2018-05-02T05:47:21.067Z,99.90
2018-05-02T05:49:48.682Z,99.90
2018-05-02T05:52:16.223Z,99.90
2018-05-02T05:54:44.499Z,99.90
2018-05-02T05:57:12.801Z,99.90
2018-05-02T05:59:40.317Z,99.90
2018-05-02T06:02:07.851Z,99.90
2018-05-02T06:04:35.385Z,99.90
2018-05-02T06:07:02.953Z,99.90
2018-05-02T06:09:30.484Z,99.90
2018-05-02T06:11:58.797Z,99.90
2018-05-02T06:14:26.303Z,99.90
2018-05-02T06:16:53.832Z,99.90
2018-05-02T06:19:21.345Z,99.90
2018-05-02T06:21:49.656Z,99.90
2018-05-02T06:24:17.168Z,99.90
2018-05-02T06:26:44.680Z,99.90
2018-05-02T06:29:12.211Z,99.90
2018-05-02T06:31:39.812Z,99.90
2018-05-02T06:34:08.081Z,99.90
2018-05-02T06:36:35.600Z,99.90
2018-05-02T06:39:03.137Z,99.90
2018-05-02T06:41:30.664Z,99.90
2018-05-02T06:43:58.196Z,99.90
2018-05-02T06:46:26.476Z,99.90
2018-05-02T06:48:54.772Z,99.90
2018-05-02T06:51:22.292Z,99.90
2018-05-02T06:53:49.827Z,99.90
2018-05-02T06:56:17.332Z,99.90
2018-05-02T06:58:44.867Z,99.90
2018-05-02T07:01:12.383Z,99.90
2018-05-02T07:03:39.929Z,99.90
2018-05-02T07:06:08.211Z,74.10
2018-05-02T07:08:36.515Z,64.20
2018-05-02T07:11:04.033Z,64.20
2018-05-02T07:13:31.608Z,60.70
2018-05-02T07:15:59.108Z,57.20
2018-05-02T07:18:26.625Z,56.80
2018-05-02T07:20:54.162Z,58.30
2018-05-02T07:23:21.683Z,60.90
2018-05-02T07:25:49.217Z,61.10
2018-05-02T07:28:16.729Z,63.70
2018-05-02T07:30:44.263Z,66.00
2018-05-02T07:33:11.783Z,67.90
2018-05-02T07:35:39.323Z,66.50
2018-05-02T07:38:06.837Z,63.60
2018-05-02T07:40:35.145Z,64.40
2018-05-02T07:43:02.663Z,64.40
2018-05-02T07:45:30.191Z,62.40
2018-05-02T07:47:57.719Z,61.20
2018-05-02T07:50:25.256Z,61.30
2018-05-02T07:52:52.773Z,60.00
2018-05-02T07:55:20.319Z,60.70
2018-05-02T07:57:47.844Z,60.00
2018-05-02T08:00:16.124Z,60.50
2018-05-02T08:02:44.424Z,59.50
2018-05-02T08:05:11.937Z,58.80
2018-05-02T08:07:39.473Z,60.90
2018-05-02T08:10:06.988Z,57.90
2018-05-02T08:12:34.532Z,63.70
2018-05-02T08:15:02.055Z,63.60
2018-05-02T08:17:29.592Z,63.90
2018-05-02T08:19:57.876Z,66.50
2018-05-02T08:22:26.177Z,64.10
2018-05-02T08:24:53.692Z,64.10
2018-05-02T08:27:21.223Z,61.60
2018-05-02T08:29:48.735Z,65.40
2018-05-02T08:32:17.035Z,66.60
2018-05-02T08:34:44.555Z,66.60
2018-05-02T08:37:12.084Z,70.40
2018-05-02T08:39:39.599Z,69.20
2018-05-02T08:42:07.911Z,66.20
2018-05-02T08:44:35.424Z,66.10
2018-05-02T08:47:02.939Z,64.50
2018-05-02T08:49:30.761Z,62.00
2018-05-02T08:51:58.272Z,65.60
2018-05-02T08:54:25.809Z,68.20
2018-05-02T08:56:54.089Z,69.70
2018-05-02T08:59:21.619Z,69.70
2018-05-02T09:01:49.132Z,69.40
2018-05-02T09:04:16.667Z,69.20
2018-05-02T09:06:44.961Z,64.30
2018-05-02T09:09:12.501Z,64.30
2018-05-02T09:11:41.635Z,64.70
2018-05-02T09:14:10.138Z,61.80
2018-05-02T09:16:37.656Z,61.70
2018-05-02T09:19:05.193Z,62.00
2018-05-02T09:21:32.705Z,63.20
2018-05-02T09:24:00.251Z,59.00
2018-05-02T09:26:27.763Z,62.40
2018-05-02T09:28:55.281Z,61.00
2018-05-02T09:31:22.811Z,62.30
2018-05-02T09:33:51.095Z,64.40
2018-05-02T09:36:19.391Z,64.80
2018-05-02T09:38:46.905Z,64.80
2018-05-02T09:41:14.445Z,62.30
2018-05-02T09:43:41.961Z,63.20
2018-05-02T09:46:11.080Z,66.40
2018-05-02T09:48:38.596Z,66.20
2018-05-02T09:51:06.127Z,66.90
2018-05-02T09:53:33.640Z,63.70
2018-05-02T10:39:42.790Z,60.80
2018-05-02T10:42:10.329Z,69.30
2018-05-02T10:44:37.843Z,68.10
2018-05-02T10:47:05.447Z,67.80
2018-05-02T10:49:32.963Z,66.20
2018-05-02T10:52:00.480Z,66.40
2018-05-02T10:54:28.011Z,65.20
2018-05-02T10:56:55.523Z,62.80
2018-05-02T10:59:23.062Z,59.20
2018-05-02T11:01:50.577Z,62.90
2018-05-02T11:04:18.112Z,63.80
2018-05-02T11:06:45.644Z,61.40
2018-05-02T11:09:13.200Z,59.50
2018-05-02T11:11:40.720Z,60.30
2018-05-02T11:14:08.256Z,61.10
2018-05-02T11:16:35.773Z,58.90
2018-05-02T11:19:03.365Z,60.20
2018-05-02T11:21:30.876Z,59.60
2018-05-02T11:23:59.203Z,61.00
2018-05-02T11:26:26.764Z,60.10
2018-05-02T11:28:54.317Z,58.90
2018-05-02T11:31:21.881Z,56.80
2018-05-02T11:33:49.440Z,57.00
2018-05-02T11:36:17.003Z,54.90
2018-05-02T11:38:44.528Z,57.10
2018-05-02T11:41:12.134Z,56.70
2018-05-02T11:43:39.707Z,59.20
2018-05-02T11:46:07.240Z,56.70
2018-05-02T11:48:35.544Z,56.90
2018-05-02T11:51:03.110Z,56.90
2018-05-02T11:53:30.675Z,54.90
2018-05-02T11:55:58.212Z,55.00
2018-05-02T11:58:26.525Z,56.60
2018-05-02T12:00:54.059Z,56.60
2018-05-02T12:03:22.345Z,56.80
2018-05-02T12:05:50.653Z,57.10
2018-05-02T12:08:18.165Z,57.20
2018-05-02T12:10:45.697Z,58.50
2018-05-02T12:13:13.204Z,59.70
2018-05-02T12:15:42.261Z,57.70
2018-05-02T12:18:09.777Z,57.60
2018-05-02T12:20:38.057Z,58.20
2018-05-02T12:23:06.356Z,57.30
2018-05-02T12:25:33.871Z,57.30
2018-05-02T12:28:01.497Z,57.50
2018-05-02T12:33:20.485Z,57.10
2018-05-02T12:35:48.001Z,57.10
2018-05-02T12:38:15.607Z,58.20
2018-05-02T12:40:43.121Z,56.90
2018-05-02T12:43:10.655Z,56.20
2018-05-02T12:45:38.174Z,56.30
2018-05-02T12:48:06.477Z,53.20
2018-05-02T12:50:33.998Z,53.20
2018-05-02T12:53:01.601Z,54.80
2018-05-02T12:55:29.173Z,57.20
2018-05-02T12:57:56.730Z,53.30
2018-05-02T13:00:24.288Z,54.90
2018-05-02T13:02:51.883Z,56.90
2018-05-02T13:05:19.356Z,56.10
2018-05-02T13:07:46.896Z,56.10
2018-05-02T13:10:14.407Z,54.50
2018-05-02T13:12:42.707Z,55.70
2018-05-02T13:15:10.220Z,55.70
2018-05-02T13:17:37.737Z,55.40
2018-05-02T13:20:05.271Z,57.70
2018-05-02T13:22:33.552Z,59.30
2018-05-02T13:25:01.854Z,58.40
2018-05-02T13:27:29.370Z,58.40
2018-05-02T13:29:56.907Z,55.20
2018-05-02T13:32:24.424Z,55.00
2018-05-02T13:34:52.730Z,54.50
2018-05-02T13:37:20.243Z,54.50
2018-05-02T13:39:47.776Z,53.90
2018-05-02T13:42:15.295Z,52.60
2018-05-02T13:44:43.598Z,51.40
2018-05-02T13:47:11.160Z,51.30
2018-05-02T13:49:38.696Z,51.70
2018-05-02T13:52:06.978Z,49.50
2018-05-02T13:54:35.285Z,48.20
2018-05-02T13:57:02.800Z,48.30
2018-05-02T13:59:30.321Z,49.30
2018-05-02T14:01:57.855Z,51.40
2018-05-02T14:04:26.894Z,50.90
2018-05-02T14:06:54.428Z,51.40
2018-05-02T14:09:21.944Z,52.30
2018-05-02T14:11:49.480Z,49.50
2018-05-02T14:14:16.998Z,49.80
2018-05-02T14:16:45.306Z,48.60
2018-05-02T14:19:12.894Z,48.60
2018-05-02T14:21:40.419Z,48.60
2018-05-02T14:24:07.936Z,47.50
2018-05-02T14:26:35.480Z,47.40
2018-05-02T14:29:03.256Z,48.50
2018-05-02T14:31:30.777Z,49.60
2018-05-02T14:33:58.343Z,48.80
2018-05-02T14:36:25.861Z,53.10
2018-05-02T14:38:53.396Z,51.40
2018-05-02T14:41:20.913Z,52.50
2018-05-02T14:43:48.453Z,55.80
2018-05-02T14:46:16.741Z,54.60
2018-05-02T14:48:45.216Z,56.10
2018-05-02T14:51:13.540Z,56.50
2018-05-02T14:53:41.075Z,56.30
2018-05-02T14:56:08.597Z,55.60
2018-05-02T14:58:36.217Z,56.40
2018-05-02T15:01:03.733Z,57.40
2018-05-02T15:03:31.279Z,59.20
2018-05-02T15:05:58.787Z,59.30
2018-05-02T15:08:27.090Z,58.50
2018-05-02T15:10:54.616Z,58.50
2018-05-02T15:13:22.915Z,59.80
2018-05-02T15:15:50.432Z,59.70
2018-05-02T15:18:17.949Z,62.00
2018-05-02T15:20:45.479Z,63.80
2018-05-02T15:23:13.093Z,59.20
2018-05-02T15:25:40.630Z,59.40
2018-05-02T15:28:08.144Z,60.40
2018-05-02T15:30:35.681Z,61.80
2018-05-02T15:33:03.192Z,63.20
2018-05-02T15:35:30.808Z,62.80
2018-05-02T15:37:58.371Z,62.60
2018-05-02T15:40:25.962Z,63.40
2018-05-02T15:42:53.497Z,62.00
2018-05-02T15:45:21.058Z,61.30
2018-05-02T15:47:48.571Z,61.50
2018-05-02T15:50:16.119Z,64.30
2018-05-02T15:52:43.639Z,66.80
2018-05-02T15:55:11.151Z,67.20
2018-05-02T15:57:38.696Z,68.10
2018-05-02T16:00:06.215Z,67.70
2018-05-02T16:02:34.620Z,66.60
2018-05-02T16:05:02.196Z,66.60
2018-05-02T16:07:29.744Z,66.70
2018-05-02T16:09:57.279Z,63.80
2018-05-02T16:12:25.580Z,65.30
2018-05-02T16:14:53.157Z,65.30
2018-05-02T16:17:20.698Z,67.40
2018-05-02T16:19:48.215Z,67.80
2018-05-02T16:22:15.753Z,64.90
2018-05-02T16:24:43.268Z,62.80
2018-05-02T16:27:11.563Z,56.50
2018-05-02T16:29:39.844Z,57.80
2018-05-02T16:32:08.143Z,59.00
2018-05-02T16:34:35.719Z,59.00
2018-05-02T16:37:03.260Z,64.30
2018-05-02T16:39:31.547Z,59.90
2018-05-02T16:41:59.067Z,59.90
2018-05-02T16:44:26.596Z,64.50
2018-05-02T16:46:54.105Z,60.40
2018-05-02T16:49:21.635Z,60.20
2018-05-02T16:51:49.176Z,60.50
2018-05-02T16:54:16.711Z,67.30
2018-05-02T16:56:45.025Z,78.30
2018-05-02T16:59:12.560Z,78.30
2018-05-02T17:01:40.831Z,92.30
2018-05-02T17:04:09.203Z,98.80
2018-05-02T17:06:36.720Z,98.80
2018-05-02T17:09:04.986Z,99.90
2018-05-02T17:11:32.509Z,99.90
2018-05-02T17:14:00.043Z,99.90
2018-05-02T17:16:27.560Z,99.90
2018-05-02T17:18:55.870Z,99.90
2018-05-02T17:21:23.387Z,99.90
2018-05-02T17:23:50.935Z,99.90
2018-05-02T17:26:18.555Z,99.90
2018-05-02T17:28:46.069Z,99.90
2018-05-02T17:31:13.604Z,99.90
2018-05-02T17:33:41.116Z,99.90
2018-05-02T17:36:09.420Z,99.90
2018-05-02T17:38:36.931Z,99.90
2018-05-02T17:41:04.552Z,99.90
2018-05-02T17:43:32.130Z,99.90
2018-05-02T17:45:59.669Z,99.90
2018-05-02T17:48:27.240Z,99.90
2018-05-02T17:50:54.772Z,99.90
2018-05-02T17:53:22.287Z,99.90
2018-05-02T17:55:49.824Z,99.90
2018-05-02T17:58:18.100Z,99.90
2018-05-02T18:00:46.402Z,99.90
2018-05-02T18:03:13.916Z,99.90
2018-05-02T18:05:41.463Z,99.90
2018-05-02T18:08:08.982Z,99.90
2018-05-02T18:10:36.487Z,99.90
2018-05-02T18:13:04.024Z,99.90
2018-05-02T18:15:31.544Z,99.90
2018-05-02T18:17:59.848Z,99.90
2018-05-02T18:20:27.365Z,99.90
2018-05-02T18:22:54.982Z,99.90
2018-05-02T18:25:22.447Z,99.90
2018-05-02T18:27:50.005Z,99.90
2018-05-02T18:30:17.528Z,99.90
2018-05-02T18:32:45.832Z,99.90
2018-05-02T18:35:13.339Z,99.90
2018-05-02T18:37:40.873Z,99.90
2018-05-02T18:40:08.383Z,99.90
2018-05-02T18:42:35.920Z,99.90
2018-05-02T18:45:03.437Z,99.90
2018-05-02T18:47:30.977Z,99.90
2018-05-02T18:49:59.252Z,99.90
2018-05-02T18:52:26.771Z,99.90
2018-05-02T18:54:54.307Z,99.90
2018-05-02T18:57:21.824Z,99.90
2018-05-02T18:59:49.360Z,99.90
2018-05-02T19:02:16.911Z,99.90
2018-05-02T19:04:44.484Z,99.90
2018-05-02T19:07:12.004Z,99.90
2018-05-02T19:09:40.306Z,99.90
2018-05-02T19:12:08.741Z,99.90
2018-05-02T19:14:36.984Z,99.90
2018-05-02T19:17:04.501Z,99.90
2018-05-02T19:19:37.625Z,99.90
2018-05-02T19:22:05.139Z,99.90
2018-05-02T19:24:38.323Z,99.90
2018-05-02T19:27:05.852Z,99.90
2018-05-02T19:29:33.416Z,99.90
2018-05-02T19:32:06.620Z,99.90
2018-05-02T19:34:34.161Z,99.90
2018-05-02T19:37:02.435Z,99.90
2018-05-02T19:39:36.435Z,99.90
2018-05-02T19:42:09.608Z,99.90
2018-05-02T19:44:37.148Z,99.90
2018-05-02T19:47:04.666Z,99.90
2018-05-02T19:49:32.955Z,99.90
2018-05-02T19:52:07.003Z,99.90
2018-05-02T19:54:34.564Z,99.90
2018-05-02T19:57:02.184Z,99.90
2018-05-02T19:59:29.635Z,99.90
2018-05-02T20:02:02.982Z,99.90
2018-05-02T20:04:30.497Z,99.90
2018-05-02T20:06:58.038Z,99.90
2018-05-02T20:09:31.249Z,99.90
2018-05-02T20:12:04.463Z,99.90
2018-05-02T20:14:32.745Z,99.90
2018-05-02T20:17:01.049Z,99.90
2018-05-02T20:19:28.568Z,99.90
2018-05-02T20:21:56.105Z,99.90
2018-05-02T20:24:23.621Z,99.90
2018-05-02T20:26:51.921Z,99.90
2018-05-02T20:29:19.488Z,99.90
2018-05-02T20:31:47.048Z,99.90
2018-05-02T20:34:14.572Z,99.90
2018-05-02T20:36:42.903Z,99.90
2018-05-02T20:39:10.424Z,99.90
2018-05-02T20:41:38.726Z,99.90
2018-05-02T20:44:06.266Z,99.90
2018-05-02T20:46:34.649Z,99.90
2018-05-02T20:49:02.120Z,99.90
2018-05-02T20:51:30.395Z,99.90
2018-05-02T20:53:58.701Z,99.90
2018-05-02T20:56:26.207Z,99.90
2018-05-02T20:58:54.512Z,99.90
2018-05-02T21:01:22.829Z,99.90
2018-05-02T21:03:50.371Z,99.90
2018-05-02T21:06:17.887Z,99.90
2018-05-02T21:08:45.423Z,99.90
2018-05-02T21:11:12.937Z,99.90
2018-05-02T21:13:41.236Z,99.90
2018-05-02T21:16:08.748Z,99.90
2018-05-02T21:18:36.284Z,99.90
2018-05-02T21:21:03.805Z,99.90
2018-05-02T21:23:32.083Z,99.90
2018-05-02T21:26:00.395Z,99.90
2018-05-02T21:28:27.908Z,99.90
2018-05-02T21:30:56.222Z,99.90
2018-05-02T21:33:23.800Z,99.90
2018-05-02T21:35:51.368Z,99.90
2018-05-02T21:38:18.883Z,99.90
2018-05-02T21:40:46.454Z,99.90
2018-05-02T21:43:15.457Z,99.90
2018-05-02T21:45:43.752Z,99.90
2018-05-02T21:48:12.029Z,99.90
2018-05-02T21:50:40.331Z,99.90
2018-05-02T21:53:07.855Z,99.90
2018-05-02T21:55:35.387Z,99.90
2018-05-02T21:58:02.911Z,99.90
2018-05-02T22:00:30.455Z,99.90
2018-05-02T22:02:58.740Z,99.90
2018-05-02T22:05:27.024Z,99.90
2018-05-02T22:07:55.325Z,99.90
2018-05-02T22:10:22.845Z,99.90
2018-05-02T22:12:51.149Z,99.90
2018-05-02T22:15:19.428Z,99.90
2018-05-02T22:17:47.728Z,99.90
2018-05-02T22:20:15.240Z,99.90
2018-05-02T22:22:42.774Z,99.90
2018-05-02T22:25:10.317Z,99.90
2018-05-02T22:27:37.857Z,99.90
2018-05-02T22:30:06.160Z,99.90
2018-05-02T22:32:33.692Z,99.90
2018-05-02T22:35:01.971Z,99.90
2018-05-02T22:37:29.577Z,99.90
2018-05-02T22:39:57.096Z,99.90
2018-05-02T22:42:25.421Z,99.90
2018-05-02T22:44:52.955Z,99.90
2018-05-02T22:47:21.232Z,99.90
2018-05-02T22:49:49.535Z,99.90
2018-05-02T22:52:17.108Z,99.90
2018-05-02T22:54:44.673Z,99.90
2018-05-02T22:57:12.182Z,99.90
2018-05-02T22:59:40.484Z,99.90
2018-05-02T23:02:08.768Z,99.90
2018-05-02T23:04:37.175Z,99.90
2018-05-02T23:07:04.692Z,99.90
2018-05-02T23:09:32.223Z,99.90
2018-05-02T23:11:59.748Z,99.90
2018-05-02T23:14:28.043Z,99.90
2018-05-02T23:16:55.555Z,99.90
2018-05-02T23:19:23.099Z,99.90
2018-05-02T23:21:50.621Z,99.90
2018-05-02T23:24:18.925Z,99.90
2018-05-02T23:26:46.442Z,99.90
2018-05-02T23:29:13.953Z,99.90
2018-05-02T23:31:41.485Z,99.90
2018-05-02T23:34:09.769Z,99.90
2018-05-02T23:36:38.077Z,99.90
2018-05-02T23:39:05.594Z,99.90
2018-05-02T23:41:33.127Z,99.90
2018-05-02T23:44:00.641Z,99.90
2018-05-02T23:46:28.940Z,99.90
2018-05-02T23:48:56.451Z,99.90
2018-05-02T23:51:23.985Z,99.90
2018-05-02T23:53:51.498Z,99.90
2018-05-02T23:56:19.813Z,99.90
2018-05-02T23:58:47.334Z,99.90
